sensor_id;sensor_type;location;lat;lon;timestamp;P1;durP1;ratioP1;P2;durP2;ratioP2
58412;SDS011;44209;52.952;6.790;2023-05-19T00:01:26;13.93;;;7.43;;
58412;SDS011;44209;52.952;6.790;2023-05-19T00:03:54;18.27;;;8.10;;
58412;SDS011;44209;52.952;6.790;2023-05-19T00:06:25;19.03;;;7.90;;
58412;SDS011;44209;52.952;6.790;2023-05-19T00:08:57;14.63;;;7.70;;
58412;SDS011;44209;52.952;6.790;2023-05-19T00:11:23;18.47;;;7.90;;
58412;SDS011;44209;52.952;6.790;2023-05-19T00:13:51;15.23;;;8.00;;
58412;SDS011;44209;52.952;6.790;2023-05-19T00:16:18;20.00;;;8.17;;
58412;SDS011;44209;52.952;6.790;2023-05-19T00:18:44;16.37;;;8.20;;
58412;SDS011;44209;52.952;6.790;2023-05-19T00:21:11;14.83;;;8.17;;
58412;SDS011;44209;52.952;6.790;2023-05-19T00:23:37;19.97;;;8.70;;
58412;SDS011;44209;52.952;6.790;2023-05-19T00:26:03;16.80;;;8.40;;
58412;SDS011;44209;52.952;6.790;2023-05-19T00:28:28;17.57;;;8.57;;
58412;SDS011;44209;52.952;6.790;2023-05-19T00:30:54;17.03;;;8.80;;
58412;SDS011;44209;52.952;6.790;2023-05-19T00:33:20;16.43;;;8.43;;
58412;SDS011;44209;52.952;6.790;2023-05-19T00:35:46;17.63;;;7.80;;
58412;SDS011;44209;52.952;6.790;2023-05-19T00:38:12;20.53;;;8.77;;
58412;SDS011;44209;52.952;6.790;2023-05-19T00:40:37;21.53;;;9.30;;
58412;SDS011;44209;52.952;6.790;2023-05-19T00:43:03;18.17;;;8.70;;
58412;SDS011;44209;52.952;6.790;2023-05-19T00:45:35;19.70;;;9.25;;
58412;SDS011;44209;52.952;6.790;2023-05-19T00:48:00;16.10;;;8.50;;
58412;SDS011;44209;52.952;6.790;2023-05-19T00:50:26;20.07;;;8.27;;
58412;SDS011;44209;52.952;6.790;2023-05-19T00:52:55;14.73;;;7.70;;
58412;SDS011;44209;52.952;6.790;2023-05-19T00:55:22;19.10;;;8.30;;
58412;SDS011;44209;52.952;6.790;2023-05-19T00:57:57;16.47;;;8.20;;
58412;SDS011;44209;52.952;6.790;2023-05-19T01:00:23;18.10;;;7.70;;
58412;SDS011;44209;52.952;6.790;2023-05-19T01:02:48;17.03;;;8.37;;
58412;SDS011;44209;52.952;6.790;2023-05-19T01:05:15;17.60;;;8.07;;
58412;SDS011;44209;52.952;6.790;2023-05-19T01:07:41;16.90;;;8.10;;
58412;SDS011;44209;52.952;6.790;2023-05-19T01:10:07;17.47;;;8.03;;
58412;SDS011;44209;52.952;6.790;2023-05-19T01:12:34;20.23;;;8.83;;
58412;SDS011;44209;52.952;6.790;2023-05-19T01:15:00;15.47;;;8.20;;
58412;SDS011;44209;52.952;6.790;2023-05-19T01:17:33;17.83;;;7.97;;
58412;SDS011;44209;52.952;6.790;2023-05-19T01:20:26;17.70;;;7.97;;
58412;SDS011;44209;52.952;6.790;2023-05-19T01:31:03;17.40;;;8.70;;
58412;SDS011;44209;52.952;6.790;2023-05-19T01:33:31;17.83;;;8.17;;
58412;SDS011;44209;52.952;6.790;2023-05-19T01:35:58;19.93;;;8.00;;
58412;SDS011;44209;52.952;6.790;2023-05-19T01:38:27;20.00;;;8.33;;
58412;SDS011;44209;52.952;6.790;2023-05-19T01:40:54;17.17;;;7.67;;
58412;SDS011;44209;52.952;6.790;2023-05-19T01:43:23;16.53;;;7.90;;
58412;SDS011;44209;52.952;6.790;2023-05-19T01:45:50;13.83;;;7.67;;
58412;SDS011;44209;52.952;6.790;2023-05-19T01:48:17;18.77;;;8.77;;
58412;SDS011;44209;52.952;6.790;2023-05-19T01:50:44;18.93;;;7.57;;
58412;SDS011;44209;52.952;6.790;2023-05-19T01:53:10;19.70;;;8.77;;
58412;SDS011;44209;52.952;6.790;2023-05-19T01:55:41;18.23;;;7.13;;
58412;SDS011;44209;52.952;6.790;2023-05-19T02:01:06;16.20;;;7.87;;
58412;SDS011;44209;52.952;6.790;2023-05-19T02:03:54;18.50;;;8.07;;
58412;SDS011;44209;52.952;6.790;2023-05-19T02:14:34;14.10;;;7.67;;
58412;SDS011;44209;52.952;6.790;2023-05-19T02:17:05;17.13;;;7.37;;
58412;SDS011;44209;52.952;6.790;2023-05-19T02:19:37;17.97;;;7.57;;
58412;SDS011;44209;52.952;6.790;2023-05-19T02:22:06;21.07;;;7.77;;
58412;SDS011;44209;52.952;6.790;2023-05-19T02:24:32;18.07;;;7.40;;
58412;SDS011;44209;52.952;6.790;2023-05-19T02:26:58;17.80;;;8.30;;
58412;SDS011;44209;52.952;6.790;2023-05-19T02:29:24;19.97;;;8.17;;
58412;SDS011;44209;52.952;6.790;2023-05-19T02:31:50;14.97;;;7.90;;
58412;SDS011;44209;52.952;6.790;2023-05-19T02:34:16;18.17;;;7.87;;
58412;SDS011;44209;52.952;6.790;2023-05-19T02:36:41;15.17;;;7.57;;
58412;SDS011;44209;52.952;6.790;2023-05-19T02:39:08;17.63;;;7.73;;
58412;SDS011;44209;52.952;6.790;2023-05-19T02:41:35;17.80;;;8.07;;
58412;SDS011;44209;52.952;6.790;2023-05-19T02:44:01;17.10;;;7.87;;
58412;SDS011;44209;52.952;6.790;2023-05-19T02:46:27;16.73;;;7.57;;
58412;SDS011;44209;52.952;6.790;2023-05-19T02:48:52;18.33;;;8.20;;
58412;SDS011;44209;52.952;6.790;2023-05-19T02:51:18;17.70;;;7.87;;
58412;SDS011;44209;52.952;6.790;2023-05-19T02:53:44;14.90;;;7.13;;
58412;SDS011;44209;52.952;6.790;2023-05-19T02:56:09;19.50;;;7.97;;
58412;SDS011;44209;52.952;6.790;2023-05-19T02:58:35;18.63;;;8.17;;
58412;SDS011;44209;52.952;6.790;2023-05-19T03:01:01;17.97;;;7.83;;
58412;SDS011;44209;52.952;6.790;2023-05-19T03:03:27;13.47;;;7.47;;
58412;SDS011;44209;52.952;6.790;2023-05-19T03:05:52;16.83;;;8.53;;
58412;SDS011;44209;52.952;6.790;2023-05-19T03:08:18;20.37;;;8.33;;
58412;SDS011;44209;52.952;6.790;2023-05-19T03:10:44;15.70;;;7.97;;
58412;SDS011;44209;52.952;6.790;2023-05-19T03:13:11;14.30;;;7.80;;
58412;SDS011;44209;52.952;6.790;2023-05-19T03:15:36;21.57;;;8.20;;
58412;SDS011;44209;52.952;6.790;2023-05-19T03:18:02;19.40;;;8.03;;
58412;SDS011;44209;52.952;6.790;2023-05-19T03:20:28;19.20;;;9.23;;
58412;SDS011;44209;52.952;6.790;2023-05-19T03:22:57;20.07;;;9.10;;
58412;SDS011;44209;52.952;6.790;2023-05-19T03:25:23;15.87;;;7.83;;
58412;SDS011;44209;52.952;6.790;2023-05-19T03:27:48;16.40;;;8.33;;
58412;SDS011;44209;52.952;6.790;2023-05-19T03:30:14;22.27;;;9.30;;
58412;SDS011;44209;52.952;6.790;2023-05-19T03:32:40;23.83;;;9.70;;
58412;SDS011;44209;52.952;6.790;2023-05-19T03:35:06;20.23;;;9.23;;
58412;SDS011;44209;52.952;6.790;2023-05-19T03:37:32;17.87;;;8.97;;
58412;SDS011;44209;52.952;6.790;2023-05-19T03:39:58;19.53;;;8.77;;
58412;SDS011;44209;52.952;6.790;2023-05-19T03:42:24;19.57;;;9.37;;
58412;SDS011;44209;52.952;6.790;2023-05-19T03:44:49;23.30;;;9.23;;
58412;SDS011;44209;52.952;6.790;2023-05-19T03:47:15;21.37;;;9.53;;
58412;SDS011;44209;52.952;6.790;2023-05-19T03:49:41;21.23;;;9.73;;
58412;SDS011;44209;52.952;6.790;2023-05-19T03:52:07;17.43;;;9.87;;
58412;SDS011;44209;52.952;6.790;2023-05-19T03:54:33;21.33;;;9.43;;
58412;SDS011;44209;52.952;6.790;2023-05-19T03:57:00;20.57;;;9.37;;
58412;SDS011;44209;52.952;6.790;2023-05-19T03:59:26;15.97;;;8.67;;
58412;SDS011;44209;52.952;6.790;2023-05-19T04:01:52;16.93;;;9.27;;
58412;SDS011;44209;52.952;6.790;2023-05-19T04:04:17;18.57;;;8.77;;
58412;SDS011;44209;52.952;6.790;2023-05-19T04:06:43;21.60;;;9.17;;
58412;SDS011;44209;52.952;6.790;2023-05-19T04:09:10;22.43;;;10.27;;
58412;SDS011;44209;52.952;6.790;2023-05-19T04:11:37;16.50;;;8.40;;
58412;SDS011;44209;52.952;6.790;2023-05-19T04:14:04;22.00;;;9.60;;
58412;SDS011;44209;52.952;6.790;2023-05-19T04:16:30;18.83;;;9.53;;
58412;SDS011;44209;52.952;6.790;2023-05-19T04:18:56;18.37;;;9.43;;
58412;SDS011;44209;52.952;6.790;2023-05-19T04:21:22;21.07;;;9.03;;
58412;SDS011;44209;52.952;6.790;2023-05-19T04:23:47;21.87;;;9.53;;
58412;SDS011;44209;52.952;6.790;2023-05-19T04:26:13;20.73;;;8.97;;
58412;SDS011;44209;52.952;6.790;2023-05-19T04:28:39;20.13;;;10.00;;
58412;SDS011;44209;52.952;6.790;2023-05-19T04:31:08;17.30;;;9.27;;
58412;SDS011;44209;52.952;6.790;2023-05-19T04:33:37;22.17;;;10.27;;
58412;SDS011;44209;52.952;6.790;2023-05-19T04:36:03;17.83;;;9.60;;
58412;SDS011;44209;52.952;6.790;2023-05-19T04:38:29;22.13;;;9.43;;
58412;SDS011;44209;52.952;6.790;2023-05-19T04:40:55;18.13;;;9.27;;
58412;SDS011;44209;52.952;6.790;2023-05-19T04:43:21;20.83;;;9.50;;
58412;SDS011;44209;52.952;6.790;2023-05-19T04:45:47;18.40;;;9.00;;
58412;SDS011;44209;52.952;6.790;2023-05-19T04:48:15;16.97;;;8.43;;
58412;SDS011;44209;52.952;6.790;2023-05-19T04:50:41;17.53;;;8.93;;
58412;SDS011;44209;52.952;6.790;2023-05-19T04:53:07;20.73;;;9.53;;
58412;SDS011;44209;52.952;6.790;2023-05-19T04:55:33;18.70;;;9.50;;
58412;SDS011;44209;52.952;6.790;2023-05-19T04:57:59;21.07;;;9.10;;
58412;SDS011;44209;52.952;6.790;2023-05-19T05:00:25;16.30;;;8.70;;
58412;SDS011;44209;52.952;6.790;2023-05-19T05:02:51;14.63;;;8.53;;
58412;SDS011;44209;52.952;6.790;2023-05-19T05:05:16;15.47;;;9.20;;
58412;SDS011;44209;52.952;6.790;2023-05-19T05:07:42;14.57;;;8.70;;
58412;SDS011;44209;52.952;6.790;2023-05-19T05:10:08;16.53;;;8.43;;
58412;SDS011;44209;52.952;6.790;2023-05-19T05:12:34;20.70;;;9.07;;
58412;SDS011;44209;52.952;6.790;2023-05-19T05:15:00;19.03;;;9.13;;
58412;SDS011;44209;52.952;6.790;2023-05-19T05:17:26;17.10;;;8.70;;
58412;SDS011;44209;52.952;6.790;2023-05-19T05:19:52;17.80;;;9.00;;
58412;SDS011;44209;52.952;6.790;2023-05-19T05:22:18;19.47;;;9.17;;
58412;SDS011;44209;52.952;6.790;2023-05-19T05:24:44;16.83;;;9.00;;
58412;SDS011;44209;52.952;6.790;2023-05-19T05:27:10;17.93;;;9.40;;
58412;SDS011;44209;52.952;6.790;2023-05-19T05:29:36;18.43;;;9.53;;
58412;SDS011;44209;52.952;6.790;2023-05-19T05:32:01;20.83;;;10.00;;
58412;SDS011;44209;52.952;6.790;2023-05-19T05:34:27;16.77;;;8.50;;
58412;SDS011;44209;52.952;6.790;2023-05-19T05:36:53;15.53;;;9.03;;
58412;SDS011;44209;52.952;6.790;2023-05-19T05:39:19;13.40;;;8.93;;
58412;SDS011;44209;52.952;6.790;2023-05-19T05:41:45;15.80;;;8.37;;
58412;SDS011;44209;52.952;6.790;2023-05-19T05:44:11;17.50;;;8.53;;
58412;SDS011;44209;52.952;6.790;2023-05-19T05:46:37;16.20;;;9.13;;
58412;SDS011;44209;52.952;6.790;2023-05-19T05:49:03;18.40;;;9.27;;
58412;SDS011;44209;52.952;6.790;2023-05-19T05:51:29;16.10;;;8.63;;
58412;SDS011;44209;52.952;6.790;2023-05-19T05:53:56;15.77;;;9.10;;
58412;SDS011;44209;52.952;6.790;2023-05-19T05:56:24;15.63;;;8.70;;
58412;SDS011;44209;52.952;6.790;2023-05-19T05:58:50;13.90;;;8.50;;
58412;SDS011;44209;52.952;6.790;2023-05-19T06:01:16;15.77;;;8.43;;
58412;SDS011;44209;52.952;6.790;2023-05-19T06:03:42;15.87;;;8.63;;
58412;SDS011;44209;52.952;6.790;2023-05-19T06:06:11;14.37;;;8.33;;
58412;SDS011;44209;52.952;6.790;2023-05-19T06:08:37;15.13;;;8.73;;
58412;SDS011;44209;52.952;6.790;2023-05-19T06:11:03;14.37;;;7.97;;
58412;SDS011;44209;52.952;6.790;2023-05-19T06:13:33;13.83;;;7.70;;
58412;SDS011;44209;52.952;6.790;2023-05-19T06:16:00;17.77;;;8.17;;
58412;SDS011;44209;52.952;6.790;2023-05-19T06:18:26;19.30;;;8.20;;
58412;SDS011;44209;52.952;6.790;2023-05-19T06:20:52;10.83;;;7.67;;
58412;SDS011;44209;52.952;6.790;2023-05-19T06:23:18;16.80;;;8.27;;
58412;SDS011;44209;52.952;6.790;2023-05-19T06:25:44;15.43;;;7.73;;
58412;SDS011;44209;52.952;6.790;2023-05-19T06:28:10;14.23;;;7.47;;
58412;SDS011;44209;52.952;6.790;2023-05-19T06:30:36;12.20;;;6.60;;
58412;SDS011;44209;52.952;6.790;2023-05-19T06:33:01;12.23;;;7.30;;
58412;SDS011;44209;52.952;6.790;2023-05-19T06:35:28;14.40;;;6.67;;
58412;SDS011;44209;52.952;6.790;2023-05-19T06:37:54;9.40;;;5.70;;
58412;SDS011;44209;52.952;6.790;2023-05-19T06:40:20;8.70;;;5.73;;
58412;SDS011;44209;52.952;6.790;2023-05-19T06:42:49;11.90;;;5.60;;
58412;SDS011;44209;52.952;6.790;2023-05-19T06:45:15;10.57;;;5.37;;
58412;SDS011;44209;52.952;6.790;2023-05-19T06:47:40;10.17;;;4.97;;
58412;SDS011;44209;52.952;6.790;2023-05-19T06:50:07;10.95;;;5.07;;
58412;SDS011;44209;52.952;6.790;2023-05-19T06:52:33;10.73;;;4.20;;
58412;SDS011;44209;52.952;6.790;2023-05-19T06:54:59;8.67;;;4.20;;
58412;SDS011;44209;52.952;6.790;2023-05-19T06:57:25;9.98;;;3.92;;
58412;SDS011;44209;52.952;6.790;2023-05-19T06:59:51;8.60;;;3.95;;
58412;SDS011;44209;52.952;6.790;2023-05-19T07:02:17;9.68;;;3.88;;
58412;SDS011;44209;52.952;6.790;2023-05-19T07:04:42;9.38;;;4.30;;
58412;SDS011;44209;52.952;6.790;2023-05-19T07:07:08;7.78;;;4.28;;
58412;SDS011;44209;52.952;6.790;2023-05-19T07:09:34;9.23;;;4.15;;
58412;SDS011;44209;52.952;6.790;2023-05-19T07:11:59;8.60;;;3.75;;
58412;SDS011;44209;52.952;6.790;2023-05-19T07:14:25;8.27;;;3.45;;
58412;SDS011;44209;52.952;6.790;2023-05-19T07:16:51;7.30;;;3.80;;
58412;SDS011;44209;52.952;6.790;2023-05-19T07:19:17;7.82;;;3.80;;
58412;SDS011;44209;52.952;6.790;2023-05-19T07:21:46;9.07;;;4.13;;
58412;SDS011;44209;52.952;6.790;2023-05-19T07:24:12;6.32;;;3.60;;
58412;SDS011;44209;52.952;6.790;2023-05-19T07:26:38;10.60;;;4.00;;
58412;SDS011;44209;52.952;6.790;2023-05-19T07:29:04;9.73;;;4.10;;
58412;SDS011;44209;52.952;6.790;2023-05-19T07:31:30;7.65;;;4.05;;
58412;SDS011;44209;52.952;6.790;2023-05-19T07:33:56;8.50;;;4.10;;
58412;SDS011;44209;52.952;6.790;2023-05-19T07:36:22;8.15;;;4.07;;
58412;SDS011;44209;52.952;6.790;2023-05-19T07:38:48;7.63;;;3.63;;
58412;SDS011;44209;52.952;6.790;2023-05-19T07:41:14;7.20;;;4.03;;
58412;SDS011;44209;52.952;6.790;2023-05-19T07:43:41;6.50;;;3.80;;
58412;SDS011;44209;52.952;6.790;2023-05-19T07:46:07;7.22;;;3.95;;
58412;SDS011;44209;52.952;6.790;2023-05-19T07:48:32;6.20;;;3.65;;
58412;SDS011;44209;52.952;6.790;2023-05-19T07:50:58;9.05;;;3.88;;
58412;SDS011;44209;52.952;6.790;2023-05-19T07:53:24;7.20;;;3.40;;
58412;SDS011;44209;52.952;6.790;2023-05-19T07:55:50;6.60;;;3.58;;
58412;SDS011;44209;52.952;6.790;2023-05-19T07:58:15;8.13;;;3.58;;
58412;SDS011;44209;52.952;6.790;2023-05-19T08:00:41;7.65;;;3.60;;
58412;SDS011;44209;52.952;6.790;2023-05-19T08:03:07;8.40;;;3.63;;
58412;SDS011;44209;52.952;6.790;2023-05-19T08:05:34;5.57;;;3.35;;
58412;SDS011;44209;52.952;6.790;2023-05-19T08:08:00;6.00;;;3.08;;
58412;SDS011;44209;52.952;6.790;2023-05-19T08:10:27;4.88;;;3.00;;
58412;SDS011;44209;52.952;6.790;2023-05-19T08:12:53;8.07;;;3.70;;
58412;SDS011;44209;52.952;6.790;2023-05-19T08:15:18;6.20;;;3.17;;
58412;SDS011;44209;52.952;6.790;2023-05-19T08:17:44;7.32;;;3.38;;
58412;SDS011;44209;52.952;6.790;2023-05-19T08:20:10;6.63;;;3.10;;
58412;SDS011;44209;52.952;6.790;2023-05-19T08:22:36;7.05;;;3.60;;
58412;SDS011;44209;52.952;6.790;2023-05-19T08:25:02;7.85;;;3.42;;
58412;SDS011;44209;52.952;6.790;2023-05-19T08:27:29;7.95;;;3.10;;
58412;SDS011;44209;52.952;6.790;2023-05-19T08:29:55;6.78;;;3.45;;
58412;SDS011;44209;52.952;6.790;2023-05-19T08:32:21;8.40;;;3.63;;
58412;SDS011;44209;52.952;6.790;2023-05-19T08:34:47;7.95;;;3.70;;
58412;SDS011;44209;52.952;6.790;2023-05-19T08:37:13;12.88;;;4.50;;
58412;SDS011;44209;52.952;6.790;2023-05-19T08:39:38;7.15;;;3.53;;
58412;SDS011;44209;52.952;6.790;2023-05-19T08:42:04;6.53;;;3.17;;
58412;SDS011;44209;52.952;6.790;2023-05-19T08:44:32;8.98;;;3.90;;
58412;SDS011;44209;52.952;6.790;2023-05-19T08:47:01;6.00;;;3.05;;
58412;SDS011;44209;52.952;6.790;2023-05-19T08:49:42;6.22;;;3.03;;
58412;SDS011;44209;52.952;6.790;2023-05-19T08:54:52;7.00;;;3.30;;
58412;SDS011;44209;52.952;6.790;2023-05-19T08:57:20;8.45;;;4.00;;
58412;SDS011;44209;52.952;6.790;2023-05-19T08:59:49;5.80;;;3.30;;
58412;SDS011;44209;52.952;6.790;2023-05-19T09:02:16;6.53;;;3.42;;
58412;SDS011;44209;52.952;6.790;2023-05-19T09:04:43;7.50;;;3.65;;
58412;SDS011;44209;52.952;6.790;2023-05-19T09:07:14;5.78;;;3.40;;
58412;SDS011;44209;52.952;6.790;2023-05-19T09:09:41;6.28;;;3.22;;
58412;SDS011;44209;52.952;6.790;2023-05-19T09:12:10;5.95;;;2.97;;
58412;SDS011;44209;52.952;6.790;2023-05-19T09:14:37;8.07;;;3.30;;
58412;SDS011;44209;52.952;6.790;2023-05-19T09:17:03;7.68;;;3.70;;
58412;SDS011;44209;52.952;6.790;2023-05-19T09:19:29;6.85;;;3.90;;
58412;SDS011;44209;52.952;6.790;2023-05-19T09:22:00;8.63;;;4.03;;
58412;SDS011;44209;52.952;6.790;2023-05-19T09:24:30;6.35;;;3.42;;
58412;SDS011;44209;52.952;6.790;2023-05-19T09:26:57;4.32;;;3.10;;
58412;SDS011;44209;52.952;6.790;2023-05-19T09:29:23;5.50;;;3.58;;
58412;SDS011;44209;52.952;6.790;2023-05-19T09:31:52;6.30;;;3.47;;
58412;SDS011;44209;52.952;6.790;2023-05-19T09:34:24;6.13;;;3.90;;
58412;SDS011;44209;52.952;6.790;2023-05-19T09:36:51;9.95;;;3.97;;
58412;SDS011;44209;52.952;6.790;2023-05-19T09:39:17;5.60;;;3.40;;
58412;SDS011;44209;52.952;6.790;2023-05-19T09:41:45;6.65;;;3.28;;
58412;SDS011;44209;52.952;6.790;2023-05-19T09:46:54;8.20;;;3.85;;
58412;SDS011;44209;52.952;6.790;2023-05-19T09:49:21;8.63;;;3.53;;
58412;SDS011;44209;52.952;6.790;2023-05-19T09:51:54;5.82;;;3.50;;
58412;SDS011;44209;52.952;6.790;2023-05-19T09:54:21;11.98;;;3.40;;
58412;SDS011;44209;52.952;6.790;2023-05-19T09:56:57;5.90;;;3.60;;
58412;SDS011;44209;52.952;6.790;2023-05-19T09:59:28;10.63;;;4.32;;
58412;SDS011;44209;52.952;6.790;2023-05-19T10:01:54;7.18;;;3.80;;
58412;SDS011;44209;52.952;6.790;2023-05-19T10:04:24;6.45;;;3.40;;
58412;SDS011;44209;52.952;6.790;2023-05-19T10:06:52;9.00;;;3.78;;
58412;SDS011;44209;52.952;6.790;2023-05-19T10:09:23;9.23;;;3.47;;
58412;SDS011;44209;52.952;6.790;2023-05-19T10:11:53;5.85;;;3.22;;
58412;SDS011;44209;52.952;6.790;2023-05-19T10:14:21;7.05;;;3.47;;
58412;SDS011;44209;52.952;6.790;2023-05-19T10:16:51;6.78;;;3.55;;
58412;SDS011;44209;52.952;6.790;2023-05-19T10:19:23;5.72;;;3.42;;
58412;SDS011;44209;52.952;6.790;2023-05-19T10:21:49;6.85;;;3.90;;
58412;SDS011;44209;52.952;6.790;2023-05-19T10:24:16;6.80;;;3.53;;
58412;SDS011;44209;52.952;6.790;2023-05-19T10:26:49;7.90;;;3.67;;
58412;SDS011;44209;52.952;6.790;2023-05-19T10:29:24;5.05;;;3.35;;
58412;SDS011;44209;52.952;6.790;2023-05-19T10:32:01;7.47;;;3.45;;
58412;SDS011;44209;52.952;6.790;2023-05-19T10:37:11;10.10;;;5.07;;
58412;SDS011;44209;52.952;6.790;2023-05-19T10:39:51;4.35;;;3.40;;
58412;SDS011;44209;52.952;6.790;2023-05-19T10:45:18;4.63;;;3.28;;
58412;SDS011;44209;52.952;6.790;2023-05-19T10:47:51;6.95;;;3.30;;
58412;SDS011;44209;52.952;6.790;2023-05-19T10:50:18;10.38;;;4.13;;
58412;SDS011;44209;52.952;6.790;2023-05-19T10:52:47;6.22;;;4.00;;
58412;SDS011;44209;52.952;6.790;2023-05-19T10:55:43;7.90;;;3.78;;
58412;SDS011;44209;52.952;6.790;2023-05-19T11:01:08;8.65;;;3.70;;
58412;SDS011;44209;52.952;6.790;2023-05-19T11:03:44;5.97;;;3.53;;
58412;SDS011;44209;52.952;6.790;2023-05-19T11:08:44;7.88;;;3.85;;
58412;SDS011;44209;52.952;6.790;2023-05-19T11:11:15;6.28;;;3.40;;
58412;SDS011;44209;52.952;6.790;2023-05-19T11:13:51;6.57;;;3.30;;
58412;SDS011;44209;52.952;6.790;2023-05-19T11:16:27;8.43;;;3.35;;
58412;SDS011;44209;52.952;6.790;2023-05-19T11:18:54;6.40;;;3.50;;
58412;SDS011;44209;52.952;6.790;2023-05-19T11:21:22;10.18;;;3.72;;
58412;SDS011;44209;52.952;6.790;2023-05-19T11:23:49;6.18;;;2.97;;
58412;SDS011;44209;52.952;6.790;2023-05-19T11:26:15;8.20;;;3.75;;
58412;SDS011;44209;52.952;6.790;2023-05-19T11:29:05;8.05;;;3.28;;
58412;SDS011;44209;52.952;6.790;2023-05-19T11:31:31;7.57;;;3.03;;
58412;SDS011;44209;52.952;6.790;2023-05-19T11:33:57;6.03;;;3.47;;
58412;SDS011;44209;52.952;6.790;2023-05-19T11:36:23;5.53;;;3.08;;
58412;SDS011;44209;52.952;6.790;2023-05-19T11:38:49;6.50;;;3.20;;
58412;SDS011;44209;52.952;6.790;2023-05-19T11:41:15;7.85;;;2.95;;
58412;SDS011;44209;52.952;6.790;2023-05-19T11:43:41;6.03;;;3.15;;
58412;SDS011;44209;52.952;6.790;2023-05-19T11:46:07;6.65;;;3.05;;
58412;SDS011;44209;52.952;6.790;2023-05-19T11:48:34;6.20;;;2.65;;
58412;SDS011;44209;52.952;6.790;2023-05-19T11:51:01;5.90;;;3.08;;
58412;SDS011;44209;52.952;6.790;2023-05-19T11:53:26;6.22;;;3.47;;
58412;SDS011;44209;52.952;6.790;2023-05-19T11:55:56;8.40;;;3.75;;
58412;SDS011;44209;52.952;6.790;2023-05-19T11:58:28;9.93;;;3.40;;
58412;SDS011;44209;52.952;6.790;2023-05-19T12:00:54;8.70;;;3.60;;
58412;SDS011;44209;52.952;6.790;2023-05-19T12:03:20;9.45;;;3.75;;
58412;SDS011;44209;52.952;6.790;2023-05-19T12:05:51;6.65;;;3.17;;
58412;SDS011;44209;52.952;6.790;2023-05-19T12:08:18;6.22;;;3.60;;
58412;SDS011;44209;52.952;6.790;2023-05-19T12:10:46;6.55;;;3.58;;
58412;SDS011;44209;52.952;6.790;2023-05-19T12:13:16;4.28;;;3.00;;
58412;SDS011;44209;52.952;6.790;2023-05-19T12:15:41;7.07;;;3.47;;
58412;SDS011;44209;52.952;6.790;2023-05-19T12:18:07;11.35;;;3.67;;
58412;SDS011;44209;52.952;6.790;2023-05-19T12:20:33;6.95;;;3.33;;
58412;SDS011;44209;52.952;6.790;2023-05-19T12:23:04;5.05;;;2.85;;
58412;SDS011;44209;52.952;6.790;2023-05-19T12:25:30;5.53;;;3.15;;
58412;SDS011;44209;52.952;6.790;2023-05-19T12:27:57;6.35;;;2.97;;
58412;SDS011;44209;52.952;6.790;2023-05-19T12:30:28;7.07;;;3.33;;
58412;SDS011;44209;52.952;6.790;2023-05-19T12:32:55;7.35;;;2.97;;
58412;SDS011;44209;52.952;6.790;2023-05-19T12:35:25;7.38;;;3.00;;
58412;SDS011;44209;52.952;6.790;2023-05-19T12:37:52;9.05;;;3.20;;
58412;SDS011;44209;52.952;6.790;2023-05-19T12:40:18;5.43;;;3.20;;
58412;SDS011;44209;52.952;6.790;2023-05-19T12:42:48;6.35;;;2.97;;
58412;SDS011;44209;52.952;6.790;2023-05-19T12:45:19;5.07;;;3.25;;
58412;SDS011;44209;52.952;6.790;2023-05-19T12:47:47;7.15;;;3.30;;
58412;SDS011;44209;52.952;6.790;2023-05-19T12:50:13;5.93;;;3.28;;
58412;SDS011;44209;52.952;6.790;2023-05-19T12:52:43;7.53;;;3.00;;
58412;SDS011;44209;52.952;6.790;2023-05-19T12:55:13;7.55;;;3.30;;
58412;SDS011;44209;52.952;6.790;2023-05-19T12:57:41;5.53;;;2.95;;
58412;SDS011;44209;52.952;6.790;2023-05-19T13:00:15;11.00;;;3.88;;
58412;SDS011;44209;52.952;6.790;2023-05-19T13:05:38;7.38;;;3.35;;
58412;SDS011;44209;52.952;6.790;2023-05-19T13:08:14;5.68;;;3.35;;
58412;SDS011;44209;52.952;6.790;2023-05-19T13:10:43;6.03;;;3.42;;
58412;SDS011;44209;52.952;6.790;2023-05-19T13:13:10;6.13;;;3.35;;
58412;SDS011;44209;52.952;6.790;2023-05-19T13:15:37;7.15;;;3.17;;
58412;SDS011;44209;52.952;6.790;2023-05-19T13:18:08;5.75;;;3.00;;
58412;SDS011;44209;52.952;6.790;2023-05-19T13:20:35;6.70;;;3.10;;
58412;SDS011;44209;52.952;6.790;2023-05-19T13:23:01;5.15;;;3.60;;
58412;SDS011;44209;52.952;6.790;2023-05-19T13:25:27;5.57;;;3.25;;
58412;SDS011;44209;52.952;6.790;2023-05-19T13:27:53;4.43;;;3.10;;
58412;SDS011;44209;52.952;6.790;2023-05-19T13:30:19;5.30;;;2.90;;
58412;SDS011;44209;52.952;6.790;2023-05-19T13:32:46;8.02;;;3.78;;
58412;SDS011;44209;52.952;6.790;2023-05-19T13:35:12;5.05;;;2.90;;
58412;SDS011;44209;52.952;6.790;2023-05-19T13:37:38;4.90;;;3.08;;
58412;SDS011;44209;52.952;6.790;2023-05-19T13:40:05;9.93;;;3.92;;
58412;SDS011;44209;52.952;6.790;2023-05-19T13:42:34;8.45;;;3.40;;
58412;SDS011;44209;52.952;6.790;2023-05-19T13:45:00;5.57;;;3.10;;
58412;SDS011;44209;52.952;6.790;2023-05-19T13:47:26;9.13;;;3.30;;
58412;SDS011;44209;52.952;6.790;2023-05-19T13:50:02;8.25;;;3.42;;
58412;SDS011;44209;52.952;6.790;2023-05-19T13:52:31;7.18;;;2.97;;
58412;SDS011;44209;52.952;6.790;2023-05-19T13:54:57;7.03;;;3.10;;
58412;SDS011;44209;52.952;6.790;2023-05-19T13:57:23;7.65;;;3.50;;
58412;SDS011;44209;52.952;6.790;2023-05-19T13:59:51;6.05;;;3.45;;
58412;SDS011;44209;52.952;6.790;2023-05-19T14:02:18;6.05;;;3.30;;
58412;SDS011;44209;52.952;6.790;2023-05-19T14:04:43;6.53;;;3.67;;
58412;SDS011;44209;52.952;6.790;2023-05-19T14:07:10;5.97;;;3.33;;
58412;SDS011;44209;52.952;6.790;2023-05-19T14:09:36;5.20;;;3.60;;
58412;SDS011;44209;52.952;6.790;2023-05-19T14:12:01;5.82;;;3.30;;
58412;SDS011;44209;52.952;6.790;2023-05-19T14:14:27;7.55;;;3.72;;
58412;SDS011;44209;52.952;6.790;2023-05-19T14:16:53;5.45;;;3.83;;
58412;SDS011;44209;52.952;6.790;2023-05-19T14:19:19;5.57;;;3.58;;
58412;SDS011;44209;52.952;6.790;2023-05-19T14:21:45;5.05;;;3.45;;
58412;SDS011;44209;52.952;6.790;2023-05-19T14:24:11;7.25;;;4.25;;
58412;SDS011;44209;52.952;6.790;2023-05-19T14:26:37;7.30;;;4.40;;
58412;SDS011;44209;52.952;6.790;2023-05-19T14:29:02;6.32;;;4.43;;
58412;SDS011;44209;52.952;6.790;2023-05-19T14:31:28;7.07;;;3.92;;
58412;SDS011;44209;52.952;6.790;2023-05-19T14:33:54;7.43;;;4.82;;
58412;SDS011;44209;52.952;6.790;2023-05-19T14:36:20;6.53;;;4.88;;
58412;SDS011;44209;52.952;6.790;2023-05-19T14:38:45;6.53;;;4.57;;
58412;SDS011;44209;52.952;6.790;2023-05-19T14:41:11;7.95;;;4.93;;
58412;SDS011;44209;52.952;6.790;2023-05-19T14:43:37;8.82;;;4.43;;
58412;SDS011;44209;52.952;6.790;2023-05-19T14:46:02;6.80;;;4.45;;
58412;SDS011;44209;52.952;6.790;2023-05-19T14:48:28;6.50;;;4.60;;
58412;SDS011;44209;52.952;6.790;2023-05-19T14:50:56;6.53;;;4.25;;
58412;SDS011;44209;52.952;6.790;2023-05-19T14:53:22;7.95;;;4.75;;
58412;SDS011;44209;52.952;6.790;2023-05-19T14:55:48;8.32;;;4.53;;
58412;SDS011;44209;52.952;6.790;2023-05-19T14:58:14;5.78;;;4.28;;
58412;SDS011;44209;52.952;6.790;2023-05-19T15:00:41;7.65;;;4.88;;
58412;SDS011;44209;52.952;6.790;2023-05-19T15:03:07;7.15;;;4.10;;
58412;SDS011;44209;52.952;6.790;2023-05-19T15:05:33;6.47;;;3.45;;
58412;SDS011;44209;52.952;6.790;2023-05-19T15:08:00;5.53;;;3.72;;
58412;SDS011;44209;52.952;6.790;2023-05-19T15:10:26;5.60;;;3.60;;
58412;SDS011;44209;52.952;6.790;2023-05-19T15:12:51;5.00;;;3.45;;
58412;SDS011;44209;52.952;6.790;2023-05-19T15:15:17;5.32;;;3.70;;
58412;SDS011;44209;52.952;6.790;2023-05-19T15:17:43;6.88;;;4.50;;
58412;SDS011;44209;52.952;6.790;2023-05-19T15:20:12;7.68;;;3.85;;